sensor_id;sensor_type;location;lat;lon;timestamp;pressure;altitude;pressure_sealevel;temperature;humidity
71151;BME280;59071;42.138;24.768;2024-03-02T00:00:00;99333.13;;;8.85;95.80
71151;BME280;59071;42.138;24.768;2024-03-02T00:02:28;99337.22;;;8.94;94.90
71151;BME280;59071;42.138;24.768;2024-03-02T00:04:53;99332.53;;;8.90;94.47
71151;BME280;59071;42.138;24.768;2024-03-02T00:07:19;99328.03;;;8.70;95.65
71151;BME280;59071;42.138;24.768;2024-03-02T00:09:44;99329.66;;;8.71;96.53
71151;BME280;59071;42.138;24.768;2024-03-02T00:12:15;99326.28;;;8.36;97.42
71151;BME280;59071;42.138;24.768;2024-03-02T00:14:41;99326.81;;;8.11;98.75
71151;BME280;59071;42.138;24.768;2024-03-02T00:17:17;99321.31;;;8.26;99.02
71151;BME280;59071;42.138;24.768;2024-03-02T00:19:46;99322.66;;;8.44;97.91
71151;BME280;59071;42.138;24.768;2024-03-02T00:22:12;99320.75;;;8.31;97.51
71151;BME280;59071;42.138;24.768;2024-03-02T00:24:38;99323.91;;;8.48;97.59
71151;BME280;59071;42.138;24.768;2024-03-02T00:27:05;99316.06;;;8.39;97.45
71151;BME280;59071;42.138;24.768;2024-03-02T00:29:32;99316.28;;;8.38;97.85
71151;BME280;59071;42.138;24.768;2024-03-02T00:31:58;99318.69;;;8.26;97.95
71151;BME280;59071;42.138;24.768;2024-03-02T00:34:23;99320.13;;;8.29;97.30
71151;BME280;59071;42.138;24.768;2024-03-02T00:36:49;99311.56;;;8.27;98.04
71151;BME280;59071;42.138;24.768;2024-03-02T00:39:16;99318.06;;;8.17;98.19
71151;BME280;59071;42.138;24.768;2024-03-02T00:41:42;99309.78;;;8.47;97.33
71151;BME280;59071;42.138;24.768;2024-03-02T00:44:10;99300.16;;;8.39;97.51
71151;BME280;59071;42.138;24.768;2024-03-02T00:46:40;99298.28;;;8.20;98.48
71151;BME280;59071;42.138;24.768;2024-03-02T00:51:35;99301.25;;;8.58;96.77
71151;BME280;59071;42.138;24.768;2024-03-02T00:54:03;99306.75;;;8.50;97.12
71151;BME280;59071;42.138;24.768;2024-03-02T00:56:29;99297.19;;;8.01;99.44
71151;BME280;59071;42.138;24.768;2024-03-02T00:58:55;99297.53;;;7.85;100.00
71151;BME280;59071;42.138;24.768;2024-03-02T01:01:21;99287.97;;;7.90;100.00
71151;BME280;59071;42.138;24.768;2024-03-02T01:03:46;99280.84;;;7.97;100.00
71151;BME280;59071;42.138;24.768;2024-03-02T01:06:12;99281.53;;;8.13;100.00
71151;BME280;59071;42.138;24.768;2024-03-02T01:08:38;99276.88;;;8.15;100.00
71151;BME280;59071;42.138;24.768;2024-03-02T01:11:04;99270.19;;;8.39;99.48
71151;BME280;59071;42.138;24.768;2024-03-02T01:13:30;99274.44;;;8.33;98.55
71151;BME280;59071;42.138;24.768;2024-03-02T01:15:56;99272.91;;;8.52;97.79
71151;BME280;59071;42.138;24.768;2024-03-02T01:18:21;99276.56;;;8.51;98.53
71151;BME280;59071;42.138;24.768;2024-03-02T01:20:47;99271.38;;;8.23;99.20
71151;BME280;59071;42.138;24.768;2024-03-02T01:23:13;99267.13;;;8.35;99.09
71151;BME280;59071;42.138;24.768;2024-03-02T01:25:39;99272.00;;;8.25;99.58
71151;BME280;59071;42.138;24.768;2024-03-02T01:28:05;99271.28;;;8.03;99.86
71151;BME280;59071;42.138;24.768;2024-03-02T01:30:30;99267.06;;;8.22;99.87
71151;BME280;59071;42.138;24.768;2024-03-02T01:32:55;99267.91;;;8.29;99.00
71151;BME280;59071;42.138;24.768;2024-03-02T01:35:21;99267.50;;;8.26;100.00
71151;BME280;59071;42.138;24.768;2024-03-02T01:37:46;99268.22;;;8.48;98.89
71151;BME280;59071;42.138;24.768;2024-03-02T01:40:12;99268.34;;;8.39;99.31
71151;BME280;59071;42.138;24.768;2024-03-02T01:42:38;99275.69;;;8.31;99.65
71151;BME280;59071;42.138;24.768;2024-03-02T01:45:07;99275.53;;;8.52;99.51
71151;BME280;59071;42.138;24.768;2024-03-02T01:47:33;99273.84;;;8.31;99.62
71151;BME280;59071;42.138;24.768;2024-03-02T01:49:59;99266.50;;;8.27;100.00
71151;BME280;59071;42.138;24.768;2024-03-02T01:52:24;99258.13;;;8.30;99.57
71151;BME280;59071;42.138;24.768;2024-03-02T01:54:50;99270.78;;;8.34;99.71
71151;BME280;59071;42.138;24.768;2024-03-02T01:57:15;99268.97;;;8.35;100.00
71151;BME280;59071;42.138;24.768;2024-03-02T01:59:41;99270.16;;;8.19;100.00
71151;BME280;59071;42.138;24.768;2024-03-02T02:02:07;99268.97;;;8.35;100.00
71151;BME280;59071;42.138;24.768;2024-03-02T02:04:32;99264.00;;;8.12;100.00
71151;BME280;59071;42.138;24.768;2024-03-02T02:06:58;99268.47;;;8.05;100.00
71151;BME280;59071;42.138;24.768;2024-03-02T02:09:24;99264.53;;;7.94;100.00
71151;BME280;59071;42.138;24.768;2024-03-02T02:11:50;99261.53;;;8.10;100.00
71151;BME280;59071;42.138;24.768;2024-03-02T02:14:16;99255.25;;;8.18;100.00
71151;BME280;59071;42.138;24.768;2024-03-02T02:16:41;99258.94;;;8.17;100.00
71151;BME280;59071;42.138;24.768;2024-03-02T02:19:10;99259.53;;;8.19;100.00
71151;BME280;59071;42.138;24.768;2024-03-02T02:21:35;99259.56;;;8.32;100.00
71151;BME280;59071;42.138;24.768;2024-03-02T02:24:01;99263.47;;;8.36;100.00
71151;BME280;59071;42.138;24.768;2024-03-02T02:26:28;99252.88;;;8.43;100.00
71151;BME280;59071;42.138;24.768;2024-03-02T02:28:54;99256.09;;;8.32;100.00
71151;BME280;59071;42.138;24.768;2024-03-02T02:31:19;99257.69;;;8.26;100.00
71151;BME280;59071;42.138;24.768;2024-03-02T02:33:44;99257.47;;;8.14;100.00
71151;BME280;59071;42.138;24.768;2024-03-02T02:36:10;99256.09;;;8.32;100.00
71151;BME280;59071;42.138;24.768;2024-03-02T02:38:38;99257.72;;;8.39;100.00
71151;BME280;59071;42.138;24.768;2024-03-02T02:41:05;99255.13;;;8.53;99.13
71151;BME280;59071;42.138;24.768;2024-03-02T02:43:30;99251.00;;;8.30;99.83
71151;BME280;59071;42.138;24.768;2024-03-02T02:45:56;99252.66;;;8.38;100.00
71151;BME280;59071;42.138;24.768;2024-03-02T02:48:21;99258.78;;;8.45;100.00
71151;BME280;59071;42.138;24.768;2024-03-02T02:50:46;99250.38;;;8.15;100.00
71151;BME280;59071;42.138;24.768;2024-03-02T02:53:12;99250.56;;;8.20;100.00
71151;BME280;59071;42.138;24.768;2024-03-02T02:55:39;99249.97;;;8.31;100.00
71151;BME280;59071;42.138;24.768;2024-03-02T02:58:08;99255.06;;;8.19;100.00
71151;BME280;59071;42.138;24.768;2024-03-02T03:00:33;99225.66;;;8.14;100.00
71151;BME280;59071;42.138;24.768;2024-03-02T03:02:58;99254.81;;;8.14;100.00
71151;BME280;59071;42.138;24.768;2024-03-02T03:05:24;99245.25;;;8.20;100.00
71151;BME280;59071;42.138;24.768;2024-03-02T03:07:49;99255.31;;;8.38;100.00
71151;BME280;59071;42.138;24.768;2024-03-02T03:10:15;99248.34;;;8.23;100.00
71151;BME280;59071;42.138;24.768;2024-03-02T03:12:42;99259.47;;;7.99;100.00
71151;BME280;59071;42.138;24.768;2024-03-02T03:15:09;99237.47;;;8.05;100.00
71151;BME280;59071;42.138;24.768;2024-03-02T03:17:35;99258.28;;;8.08;100.00
71151;BME280;59071;42.138;24.768;2024-03-02T03:20:01;99235.47;;;8.20;100.00
71151;BME280;59071;42.138;24.768;2024-03-02T03:22:29;99229.78;;;8.23;100.00
71151;BME280;59071;42.138;24.768;2024-03-02T03:24:54;99256.94;;;8.32;100.00
71151;BME280;59071;42.138;24.768;2024-03-02T03:27:20;99243.75;;;7.97;100.00
71151;BME280;59071;42.138;24.768;2024-03-02T03:29:45;99242.19;;;8.10;100.00
71151;BME280;59071;42.138;24.768;2024-03-02T03:32:11;99237.91;;;8.22;100.00
71151;BME280;59071;42.138;24.768;2024-03-02T03:34:36;99229.94;;;8.02;100.00
71151;BME280;59071;42.138;24.768;2024-03-02T03:37:02;99234.06;;;8.25;100.00
71151;BME280;59071;42.138;24.768;2024-03-02T03:39:28;99214.88;;;8.16;100.00
71151;BME280;59071;42.138;24.768;2024-03-02T03:41:54;99241.06;;;8.52;100.00
71151;BME280;59071;42.138;24.768;2024-03-02T03:44:19;99244.28;;;8.34;100.00
71151;BME280;59071;42.138;24.768;2024-03-02T03:46:44;99240.78;;;8.34;100.00
71151;BME280;59071;42.138;24.768;2024-03-02T03:49:10;99243.13;;;8.57;100.00
71151;BME280;59071;42.138;24.768;2024-03-02T03:51:35;99242.50;;;8.48;100.00
71151;BME280;59071;42.138;24.768;2024-03-02T03:54:01;99232.50;;;8.50;100.00
71151;BME280;59071;42.138;24.768;2024-03-02T03:56:26;99229.56;;;8.32;100.00
71151;BME280;59071;42.138;24.768;2024-03-02T03:58:52;99246.56;;;8.44;100.00
71151;BME280;59071;42.138;24.768;2024-03-02T04:01:17;99241.88;;;8.53;100.00
71151;BME280;59071;42.138;24.768;2024-03-02T04:03:43;99246.00;;;8.69;100.00
71151;BME280;59071;42.138;24.768;2024-03-02T04:06:08;99246.22;;;8.74;100.00
71151;BME280;59071;42.138;24.768;2024-03-02T04:08:33;99250.47;;;8.61;100.00
71151;BME280;59071;42.138;24.768;2024-03-02T04:10:59;99253.53;;;8.52;100.00
71151;BME280;59071;42.138;24.768;2024-03-02T04:13:24;99252.66;;;8.38;100.00
71151;BME280;59071;42.138;24.768;2024-03-02T04:15:49;99258.00;;;8.45;100.00
71151;BME280;59071;42.138;24.768;2024-03-02T04:18:15;99257.59;;;8.48;100.00
71151;BME280;59071;42.138;24.768;2024-03-02T04:20:41;99258.53;;;8.27;100.00
71151;BME280;59071;42.138;24.768;2024-03-02T04:23:06;99255.69;;;8.35;100.00
71151;BME280;59071;42.138;24.768;2024-03-02T04:25:32;99253.63;;;8.23;100.00
71151;BME280;59071;42.138;24.768;2024-03-02T04:27:58;99256.69;;;8.27;100.00
71151;BME280;59071;42.138;24.768;2024-03-02T04:30:23;99257.59;;;8.54;100.00
71151;BME280;59071;42.138;24.768;2024-03-02T04:32:48;99260.06;;;8.63;100.00
71151;BME280;59071;42.138;24.768;2024-03-02T04:35:14;99252.94;;;8.76;100.00
71151;BME280;59071;42.138;24.768;2024-03-02T04:37:39;99258.63;;;8.60;100.00
71151;BME280;59071;42.138;24.768;2024-03-02T04:40:05;99251.28;;;8.62;100.00
71151;BME280;59071;42.138;24.768;2024-03-02T04:42:34;99243.31;;;8.55;100.00
71151;BME280;59071;42.138;24.768;2024-03-02T04:45:00;99247.56;;;8.43;100.00
71151;BME280;59071;42.138;24.768;2024-03-02T04:47:25;99250.41;;;8.35;100.00
71151;BME280;59071;42.138;24.768;2024-03-02T04:49:51;99245.16;;;8.48;100.00
71151;BME280;59071;42.138;24.768;2024-03-02T04:52:16;99246.31;;;8.32;100.00
71151;BME280;59071;42.138;24.768;2024-03-02T04:54:42;99255.56;;;8.56;100.00
71151;BME280;59071;42.138;24.768;2024-03-02T04:57:26;99259.84;;;8.64;100.00
71151;BME280;59071;42.138;24.768;2024-03-02T04:59:51;99257.19;;;8.77;100.00
71151;BME280;59071;42.138;24.768;2024-03-02T05:02:16;99255.38;;;8.78;100.00
71151;BME280;59071;42.138;24.768;2024-03-02T05:04:42;99262.72;;;8.63;100.00
71151;BME280;59071;42.138;24.768;2024-03-02T05:07:07;99259.44;;;8.67;100.00
71151;BME280;59071;42.138;24.768;2024-03-02T05:09:33;99265.56;;;8.48;100.00
71151;BME280;59071;42.138;24.768;2024-03-02T05:11:58;99269.00;;;8.41;100.00
71151;BME280;59071;42.138;24.768;2024-03-02T05:14:44;99267.59;;;8.46;100.00
71151;BME280;59071;42.138;24.768;2024-03-02T05:17:09;99269.44;;;8.52;100.00
71151;BME280;59071;42.138;24.768;2024-03-02T05:19:34;99269.81;;;8.49;100.00
71151;BME280;59071;42.138;24.768;2024-03-02T05:22:00;99268.53;;;8.31;100.00
71151;BME280;59071;42.138;24.768;2024-03-02T05:24:25;99271.78;;;8.27;100.00
71151;BME280;59071;42.138;24.768;2024-03-02T05:26:53;99268.06;;;8.14;100.00
71151;BME280;59071;42.138;24.768;2024-03-02T05:29:18;99276.09;;;8.34;100.00
71151;BME280;59071;42.138;24.768;2024-03-02T05:31:43;99275.28;;;8.40;100.00
71151;BME280;59071;42.138;24.768;2024-03-02T05:34:09;99275.53;;;8.46;100.00
71151;BME280;59071;42.138;24.768;2024-03-02T05:36:34;99280.94;;;8.24;100.00
71151;BME280;59071;42.138;24.768;2024-03-02T05:39:00;99281.59;;;8.33;100.00
71151;BME280;59071;42.138;24.768;2024-03-02T05:41:25;99289.94;;;8.30;100.00
71151;BME280;59071;42.138;24.768;2024-03-02T05:43:50;99284.13;;;8.48;100.00
71151;BME280;59071;42.138;24.768;2024-03-02T05:46:16;99286.50;;;8.36;100.00
71151;BME280;59071;42.138;24.768;2024-03-02T05:48:41;99286.75;;;8.54;100.00
71151;BME280;59071;42.138;24.768;2024-03-02T05:51:07;99285.47;;;8.37;100.00
71151;BME280;59071;42.138;24.768;2024-03-02T05:53:32;99290.34;;;8.27;100.00
71151;BME280;59071;42.138;24.768;2024-03-02T05:55:57;99290.50;;;8.18;100.00
71151;BME280;59071;42.138;24.768;2024-03-02T05:58:23;99284.66;;;8.36;100.00
71151;BME280;59071;42.138;24.768;2024-03-02T06:01:23;99278.91;;;8.19;100.00
71151;BME280;59071;42.138;24.768;2024-03-02T06:03:55;99272.34;;;8.09;100.00
71151;BME280;59071;42.138;24.768;2024-03-02T06:06:20;99284.44;;;8.25;100.00
71151;BME280;59071;42.138;24.768;2024-03-02T06:08:46;99273.25;;;8.36;100.00
71151;BME280;59071;42.138;24.768;2024-03-02T06:11:11;99277.97;;;8.47;100.00
71151;BME280;59071;42.138;24.768;2024-03-02T06:13:36;99278.56;;;8.36;100.00
71151;BME280;59071;42.138;24.768;2024-03-02T06:16:02;99276.28;;;8.39;100.00
71151;BME280;59071;42.138;24.768;2024-03-02T06:18:27;99279.19;;;8.45;100.00
71151;BME280;59071;42.138;24.768;2024-03-02T06:20:53;99302.69;;;8.48;100.00
71151;BME280;59071;42.138;24.768;2024-03-02T06:23:18;99295.31;;;8.43;100.00
71151;BME280;59071;42.138;24.768;2024-03-02T06:25:44;99297.56;;;8.46;100.00
71151;BME280;59071;42.138;24.768;2024-03-02T06:28:09;99298.34;;;8.40;100.00
71151;BME280;59071;42.138;24.768;2024-03-02T06:30:34;99299.97;;;8.41;100.00
71151;BME280;59071;42.138;24.768;2024-03-02T06:33:00;99296.50;;;8.40;100.00
71151;BME280;59071;42.138;24.768;2024-03-02T06:35:25;99295.66;;;8.33;100.00
71151;BME280;59071;42.138;24.768;2024-03-02T06:37:51;99295.69;;;8.40;100.00
71151;BME280;59071;42.138;24.768;2024-03-02T06:40:16;99283.38;;;8.12;100.00
71151;BME280;59071;42.138;24.768;2024-03-02T06:42:42;99297.69;;;8.25;100.00
71151;BME280;59071;42.138;24.768;2024-03-02T06:45:07;99298.81;;;8.57;100.00
71151;BME280;59071;42.138;24.768;2024-03-02T06:47:33;99301.66;;;8.42;100.00
71151;BME280;59071;42.138;24.768;2024-03-02T06:49:58;99308.13;;;8.39;100.00
71151;BME280;59071;42.138;24.768;2024-03-02T06:52:24;99313.47;;;8.53;100.00
71151;BME280;59071;42.138;24.768;2024-03-02T06:54:49;99322.97;;;8.34;100.00
71151;BME280;59071;42.138;24.768;2024-03-02T06:57:15;99326.47;;;8.34;100.00
71151;BME280;59071;42.138;24.768;2024-03-02T06:59:42;99327.66;;;8.32;100.00
71151;BME280;59071;42.138;24.768;2024-03-02T07:02:07;99327.16;;;8.56;100.00
71151;BME280;59071;42.138;24.768;2024-03-02T07:04:34;99310.75;;;8.39;100.00
71151;BME280;59071;42.138;24.768;2024-03-02T07:06:59;99320.00;;;8.44;100.00
71151;BME280;59071;42.138;24.768;2024-03-02T07:09:24;99320.09;;;8.15;100.00
71151;BME280;59071;42.138;24.768;2024-03-02T07:11:51;99314.09;;;8.48;100.00
71151;BME280;59071;42.138;24.768;2024-03-02T07:14:16;99303.31;;;8.63;100.00
71151;BME280;59071;42.138;24.768;2024-03-02T07:16:41;99295.34;;;8.56;100.00
71151;BME280;59071;42.138;24.768;2024-03-02T07:19:08;99303.91;;;8.58;100.00
71151;BME280;59071;42.138;24.768;2024-03-02T07:21:34;99306.16;;;8.61;100.00
71151;BME280;59071;42.138;24.768;2024-03-02T07:23:59;99309.25;;;8.65;100.00
71151;BME280;59071;42.138;24.768;2024-03-02T07:26:25;99313.94;;;8.83;100.00
71151;BME280;59071;42.138;24.768;2024-03-02T07:28:51;99320.91;;;8.84;100.00
71151;BME280;59071;42.138;24.768;2024-03-02T07:31:17;99320.66;;;8.66;100.00
71151;BME280;59071;42.138;24.768;2024-03-02T07:33:45;99321.88;;;8.70;100.00
71151;BME280;59071;42.138;24.768;2024-03-02T07:36:12;99320.47;;;8.60;100.00
71151;BME280;59071;42.138;24.768;2024-03-02T07:38:38;99334.56;;;8.94;100.00
71151;BME280;59071;42.138;24.768;2024-03-02T07:41:03;99330.91;;;8.95;100.00
71151;BME280;59071;42.138;24.768;2024-03-02T07:43:29;99326.00;;;8.92;100.00
71151;BME280;59071;42.138;24.768;2024-03-02T07:45:55;99330.09;;;9.02;99.85
71151;BME280;59071;42.138;24.768;2024-03-02T07:48:21;99324.97;;;8.87;100.00
71151;BME280;59071;42.138;24.768;2024-03-02T07:50:46;99316.81;;;8.82;100.00
71151;BME280;59071;42.138;24.768;2024-03-02T07:53:12;99322.13;;;8.88;100.00
71151;BME280;59071;42.138;24.768;2024-03-02T07:55:37;99321.94;;;8.90;100.00
71151;BME280;59071;42.138;24.768;2024-03-02T07:58:02;99317.03;;;9.07;98.76
71151;BME280;59071;42.138;24.768;2024-03-02T08:00:28;99340.31;;;9.38;96.99
71151;BME280;59071;42.138;24.768;2024-03-02T08:02:53;99343.75;;;8.98;97.61
71151;BME280;59071;42.138;24.768;2024-03-02T08:05:20;99343.19;;;9.03;100.00
71151;BME280;59071;42.138;24.768;2024-03-02T08:07:46;99345.56;;;9.78;100.00
71151;BME280;59071;42.138;24.768;2024-03-02T08:10:12;99341.81;;;10.06;100.00
71151;BME280;59071;42.138;24.768;2024-03-02T08:12:38;99342.53;;;10.40;100.00
71151;BME280;59071;42.138;24.768;2024-03-02T08:15:03;99332.38;;;10.62;95.79
71151;BME280;59071;42.138;24.768;2024-03-02T08:17:29;99337.06;;;10.14;93.06
71151;BME280;59071;42.138;24.768;2024-03-02T08:19:55;99334.94;;;9.85;91.25
71151;BME280;59071;42.138;24.768;2024-03-02T08:22:21;99329.69;;;9.58;93.60
71151;BME280;59071;42.138;24.768;2024-03-02T08:24:46;99328.03;;;9.44;95.95
71151;BME280;59071;42.138;24.768;2024-03-02T08:27:12;99317.53;;;9.89;95.91
71151;BME280;59071;42.138;24.768;2024-03-02T08:29:37;99321.41;;;10.00;96.31
71151;BME280;59071;42.138;24.768;2024-03-02T08:32:04;99330.06;;;9.68;95.14
71151;BME280;59071;42.138;24.768;2024-03-02T08:34:30;99330.09;;;9.62;95.57
71151;BME280;59071;42.138;24.768;2024-03-02T08:36:55;99322.34;;;9.47;96.98
71151;BME280;59071;42.138;24.768;2024-03-02T08:39:21;99334.00;;;9.39;96.92
71151;BME280;59071;42.138;24.768;2024-03-02T08:41:47;99341.94;;;9.32;99.26
71151;BME280;59071;42.138;24.768;2024-03-02T08:44:13;99337.88;;;9.30;98.64
71151;BME280;59071;42.138;24.768;2024-03-02T08:46:39;99332.53;;;9.23;98.43
71151;BME280;59071;42.138;24.768;2024-03-02T08:49:04;99321.13;;;9.23;98.25
71151;BME280;59071;42.138;24.768;2024-03-02T08:51:30;99317.25;;;9.18;98.50
71151;BME280;59071;42.138;24.768;2024-03-02T08:53:56;99324.19;;;9.26;99.47
71151;BME280;59071;42.138;24.768;2024-03-02T08:56:22;99316.22;;;9.26;98.93
71151;BME280;59071;42.138;24.768;2024-03-02T08:58:49;99330.72;;;9.24;100.00
71151;BME280;59071;42.138;24.768;2024-03-02T09:01:14;99326.22;;;9.37;99.51
71151;BME280;59071;42.138;24.768;2024-03-02T09:03:40;99321.13;;;9.36;97.73
71151;BME280;59071;42.138;24.768;2024-03-02T09:06:06;99330.50;;;9.32;99.10
71151;BME280;59071;42.138;24.768;2024-03-02T09:08:31;99327.66;;;9.27;97.48
71151;BME280;59071;42.138;24.768;2024-03-02T09:10:57;99329.47;;;9.39;96.57
71151;BME280;59071;42.138;24.768;2024-03-02T09:13:22;99322.34;;;9.13;97.98
71151;BME280;59071;42.138;24.768;2024-03-02T09:15:48;99324.19;;;9.13;99.73
71151;BME280;59071;42.138;24.768;2024-03-02T09:18:13;99329.91;;;9.23;97.39
71151;BME280;59071;42.138;24.768;2024-03-02T09:20:39;99325.59;;;9.15;97.67
71151;BME280;59071;42.138;24.768;2024-03-02T09:23:04;99340.31;;;9.38;97.67
71151;BME280;59071;42.138;24.768;2024-03-02T09:25:29;99338.28;;;9.47;98.32
71151;BME280;59071;42.138;24.768;2024-03-02T09:27:55;99332.75;;;9.42;98.30
71151;BME280;59071;42.138;24.768;2024-03-02T09:30:20;99335.16;;;9.70;96.96
71151;BME280;59071;42.138;24.768;2024-03-02T09:32:46;99332.75;;;9.42;99.02
71151;BME280;59071;42.138;24.768;2024-03-02T09:35:11;99340.09;;;9.39;98.56
71151;BME280;59071;42.138;24.768;2024-03-02T09:37:37;99338.88;;;9.42;98.08
71151;BME280;59071;42.138;24.768;2024-03-02T09:40:03;99344.81;;;9.24;97.77
71151;BME280;59071;42.138;24.768;2024-03-02T09:42:29;99333.78;;;9.41;98.28
71151;BME280;59071;42.138;24.768;2024-03-02T09:44:54;99338.06;;;9.42;98.66
71151;BME280;59071;42.138;24.768;2024-03-02T09:47:20;99350.13;;;9.37;98.02
71151;BME280;59071;42.138;24.768;2024-03-02T09:49:45;99343.19;;;9.43;99.50
71151;BME280;59071;42.138;24.768;2024-03-02T09:52:11;99338.47;;;9.38;98.42
71151;BME280;59071;42.138;24.768;2024-03-02T09:54:38;99340.31;;;9.38;98.13
71151;BME280;59071;42.138;24.768;2024-03-02T09:57:04;99342.97;;;9.38;99.35
71151;BME280;59071;42.138;24.768;2024-03-02T09:59:29;99341.53;;;9.42;98.63
71151;BME280;59071;42.138;24.768;2024-03-02T10:01:56;99326.59;;;10.71;100.00
71151;BME280;59071;42.138;24.768;2024-03-02T10:04:28;99327.13;;;10.48;93.66
71151;BME280;59071;42.138;24.768;2024-03-02T10:07:16;99327.81;;;10.37;92.83
71151;BME280;59071;42.138;24.768;2024-03-02T10:09:44;99319.66;;;10.32;91.56
71151;BME280;59071;42.138;24.768;2024-03-02T10:12:10;99329.81;;;10.48;98.76
71151;BME280;59071;42.138;24.768;2024-03-02T10:14:37;99328.22;;;10.27;94.64
71151;BME280;59071;42.138;24.768;2024-03-02T10:17:04;99317.03;;;10.12;96.58
71151;BME280;59071;42.138;24.768;2024-03-02T10:19:29;99330.59;;;10.04;95.80
71151;BME280;59071;42.138;24.768;2024-03-02T10:22:03;99328.44;;;10.26;95.29
71151;BME280;59071;42.138;24.768;2024-03-02T10:24:38;99322.56;;;10.10;96.76
71151;BME280;59071;42.138;24.768;2024-03-02T10:27:25;99321.28;;;10.33;95.29
71151;BME280;59071;42.138;24.768;2024-03-02T10:29:51;99326.66;;;10.13;96.23
71151;BME280;59071;42.138;24.768;2024-03-02T10:32:17;99319.41;;;9.88;98.10
71151;BME280;59071;42.138;24.768;2024-03-02T10:34:44;99309.25;;;10.17;95.60
71151;BME280;59071;42.138;24.768;2024-03-02T10:37:11;99312.25;;;10.41;93.08
71151;BME280;59071;42.138;24.768;2024-03-02T10:39:37;99313.22;;;10.46;93.49
71151;BME280;59071;42.138;24.768;2024-03-02T10:42:05;99307.72;;;10.41;93.11
71151;BME280;59071;42.138;24.768;2024-03-02T10:44:31;99299.09;;;10.07;95.14
71151;BME280;59071;42.138;24.768;2024-03-02T10:47:00;99297.13;;;10.28;93.97
71151;BME280;59071;42.138;24.768;2024-03-02T10:49:26;99285.72;;;10.21;94.49
71151;BME280;59071;42.138;24.768;2024-03-02T10:51:52;99288.75;;;10.31;93.46
71151;BME280;59071;42.138;24.768;2024-03-02T10:54:18;99292.28;;;10.56;94.01
71151;BME280;59071;42.138;24.768;2024-03-02T10:56:44;99278.53;;;10.34;94.34
71151;BME280;59071;42.138;24.768;2024-03-02T11:01:41;99283.66;;;10.23;94.36
71151;BME280;59071;42.138;24.768;2024-03-02T11:04:09;99273.06;;;10.16;94.59
71151;BME280;59071;42.138;24.768;2024-03-02T11:06:36;99280.13;;;10.35;94.01
71151;BME280;59071;42.138;24.768;2024-03-02T11:09:06;99273.25;;;10.60;92.56
71151;BME280;59071;42.138;24.768;2024-03-02T11:11:40;99267.81;;;10.48;91.12
71151;BME280;59071;42.138;24.768;2024-03-02T11:14:18;99262.28;;;10.49;91.74
71151;BME280;59071;42.138;24.768;2024-03-02T11:16:46;99269.97;;;10.19;93.94
71151;BME280;59071;42.138;24.768;2024-03-02T11:19:13;99257.84;;;10.30;92.40
71151;BME280;59071;42.138;24.768;2024-03-02T11:21:40;99263.56;;;10.40;91.86
71151;BME280;59071;42.138;24.768;2024-03-02T11:26:47;99263.16;;;10.68;89.65
71151;BME280;59071;42.138;24.768;2024-03-02T11:32:14;99261.28;;;10.44;93.16
71151;BME280;59071;42.138;24.768;2024-03-02T11:34:41;99254.91;;;10.45;93.68
71151;BME280;59071;42.138;24.768;2024-03-02T11:37:16;99249.88;;;10.68;93.96
71151;BME280;59071;42.138;24.768;2024-03-02T11:39:43;99246.81;;;10.90;92.75
71151;BME280;59071;42.138;24.768;2024-03-02T11:42:09;99251.09;;;10.66;93.87
71151;BME280;59071;42.138;24.768;2024-03-02T11:44:38;99246.81;;;10.65;93.75
71151;BME280;59071;42.138;24.768;2024-03-02T11:47:08;99245.81;;;10.91;93.38
71151;BME280;59071;42.138;24.768;2024-03-02T11:49:46;99226.00;;;11.05;92.09
71151;BME280;59071;42.138;24.768;2024-03-02T11:52:13;99231.53;;;11.04;94.86
71151;BME280;59071;42.138;24.768;2024-03-02T11:54:40;99228.19;;;11.33;92.54
71151;BME280;59071;42.138;24.768;2024-03-02T11:57:07;99213.19;;;10.95;93.82
71151;BME280;59071;42.138;24.768;2024-03-02T11:59:33;99232.91;;;11.13;93.24
71151;BME280;59071;42.138;24.768;2024-03-02T12:01:59;99232.97;;;11.06;92.43
71151;BME280;59071;42.138;24.768;2024-03-02T12:04:25;99231.13;;;11.07;94.00
71151;BME280;59071;42.138;24.768;2024-03-02T12:06:58;99230.91;;;11.08;93.18
71151;BME280;59071;42.138;24.768;2024-03-02T12:09:29;99231.03;;;11.39;91.46
71151;BME280;59071;42.138;24.768;2024-03-02T12:12:08;99222.63;;;11.72;90.16
71151;BME280;59071;42.138;24.768;2024-03-02T12:14:36;99223.31;;;11.49;91.03
71151;BME280;59071;42.138;24.768;2024-03-02T12:17:01;99216.88;;;11.57;91.74
71151;BME280;59071;42.138;24.768;2024-03-02T12:19:28;99226.63;;;11.63;90.46
71151;BME280;59071;42.138;24.768;2024-03-02T12:21:55;99221.88;;;11.83;88.58
71151;BME280;59071;42.138;24.768;2024-03-02T12:24:21;99215.69;;;11.71;88.34
71151;BME280;59071;42.138;24.768;2024-03-02T12:26:48;99206.94;;;11.82;88.53
71151;BME280;59071;42.138;24.768;2024-03-02T12:29:14;99210.59;;;11.69;88.27
71151;BME280;59071;42.138;24.768;2024-03-02T12:31:41;99213.09;;;11.83;87.35
71151;BME280;59071;42.138;24.768;2024-03-02T12:34:07;99219.22;;;12.02;86.61
71151;BME280;59071;42.138;24.768;2024-03-02T12:36:39;99215.47;;;11.91;86.57
71151;BME280;59071;42.138;24.768;2024-03-02T12:39:06;99209.84;;;11.81;85.78
71151;BME280;59071;42.138;24.768;2024-03-02T12:41:36;99221.63;;;11.73;86.32
71151;BME280;59071;42.138;24.768;2024-03-02T12:44:01;99223.16;;;11.62;87.25
71151;BME280;59071;42.138;24.768;2024-03-02T12:46:27;99222.03;;;11.70;86.72
71151;BME280;59071;42.138;24.768;2024-03-02T12:48:52;99215.38;;;11.79;85.36
71151;BME280;59071;42.138;24.768;2024-03-02T12:51:18;99223.66;;;12.08;83.97
71151;BME280;59071;42.138;24.768;2024-03-02T12:53:43;99226.19;;;11.84;84.80
71151;BME280;59071;42.138;24.768;2024-03-02T12:56:09;99226.41;;;11.83;84.07
71151;BME280;59071;42.138;24.768;2024-03-02T12:58:41;99223.44;;;11.72;86.49